Time;durP1;ratioP1;P1;durP2;ratioP2;P2;SDS_P1;SDS_P2;PMS_P1;PMS_P2;Temp;Humidity;BMP_temperature;BMP_pressure;BME280_temperature;BME280_humidity;BME280_pressure;Samples;Min_cycle;Max_cycle;Signal;HPM_P1;HPM_P2
2022/07/15 03:22:49;;;;;;;;;;;;;;;10.48;95.70;100043.19;6216254;22;19977;-92
2022/07/15 03:25:24;;;;;;;;;;;;;;;10.50;96.68;100057.28;6250640;22;19922;-92
2022/07/15 03:30:54;;;;;;;;;;;;;;;10.36;96.71;100053.34;6237199;22;19916;-96
2022/07/15 03:33:37;;;;;;;;;;;;;;;10.82;98.90;100047.22;6254500;22;19911;-94
2022/07/15 03:36:02;;;;;;;;;;;;;;;10.48;97.71;100049.38;6252211;22;19916;-90
2022/07/15 03:44:19;;;;;;;;;;;;;;;10.48;97.72;100048.50;6184761;23;19947;-92
2022/07/15 03:46:58;;;;;;;;;;;;;;;10.69;99.78;100052.09;6255777;22;19911;-92
2022/07/15 03:50:06;;;;;;;;;;;;;;;10.63;98.20;100058.50;6252239;22;19915;-93
2022/07/15 03:57:55;;;;;;;;;;;;;;;10.74;97.39;100060.75;6273580;22;20344;-92
2022/07/15 04:00:20;;;;;;;;;;;;;;;10.62;98.81;100062.06;6249540;22;19919;-92
2022/07/15 04:02:45;;;;;;;;;;;;;;;10.65;98.40;100067.25;6249569;22;19915;-90
2022/07/15 04:05:10;;;;;;;;;;;;;;;10.51;98.03;100059.88;6249383;22;19919;-92
2022/07/15 04:07:36;;;;;;;;;;;;;;;10.78;98.71;100065.00;6248687;22;20001;-92
2022/07/15 04:10:01;;;;;;;;;;;;;;;10.60;98.08;100066.59;6249489;22;19998;-92
2022/07/15 04:12:26;;;;;;;;;;;;;;;10.70;98.86;100069.75;6249268;22;19915;-93
2022/07/15 04:14:52;;;;;;;;;;;;;;;10.49;97.74;100067.00;6249591;22;19915;-92
2022/07/15 04:17:17;;;;;;;;;;;;;;;10.70;99.58;100065.28;6249759;22;20268;-92
2022/07/15 04:19:42;;;;;;;;;;;;;;;10.58;97.72;100068.44;6249635;22;19907;-92
2022/07/15 04:22:07;;;;;;;;;;;;;;;10.67;99.02;100075.16;6247929;22;19922;-90
2022/07/15 04:24:33;;;;;;;;;;;;;;;10.64;97.86;100068.22;6276425;22;19911;-92
2022/07/15 04:26:58;;;;;;;;;;;;;;;10.56;98.12;100072.91;6253267;22;19978;-94
2022/07/15 07:41:52;;;;;;;;;;;;;;;10.33;98.18;100119.66;6203747;22;19964;-84
2022/07/15 07:44:18;;;;;;;;;;;;;;;10.28;98.69;100126.91;6218265;23;19915;-84
2022/07/15 07:46:43;;;;;;;;;;;;;;;10.48;99.06;100122.69;6245305;23;19939;-84
2022/07/15 07:49:08;;;;;;;;;;;;;;;10.34;97.83;100125.84;6218836;23;19915;-84
2022/07/15 07:51:34;;;;;;;;;;;;;;;10.51;99.36;100117.25;6218762;23;19912;-84
2022/07/15 07:53:59;;;;;;;;;;;;;;;10.33;98.29;100113.53;6218767;23;20301;-84
2022/07/15 07:56:24;;;;;;;;;;;;;;;10.56;99.75;100112.66;6216542;23;19919;-84
2022/07/15 07:58:50;;;;;;;;;;;;;;;10.44;98.75;100110.47;6218770;23;19919;-84
2022/07/15 08:01:15;;;;;;;;;;;;;;;10.41;99.17;100110.59;6245152;23;19915;-84
2022/07/15 08:03:41;;;;;;;;;;;;;;;10.48;98.87;100112.09;6245226;23;20355;-85
2022/07/15 08:06:06;;;;;;;;;;;;;;;10.58;98.46;100107.28;6245431;23;19911;-84
2022/07/15 08:08:31;;;;;;;;;;;;;;;10.59;99.15;100115.19;6245121;23;20007;-84
2022/07/15 08:10:57;;;;;;;;;;;;;;;10.32;97.74;100110.03;6243260;23;20731;-85
2022/07/15 08:13:24;;;;;;;;;;;;;;;10.68;99.37;100109.53;6245030;23;19926;-84
2022/07/15 08:15:49;;;;;;;;;;;;;;;10.45;97.24;100106.91;6217830;23;19920;-85
2022/07/15 08:18:15;;;;;;;;;;;;;;;10.60;98.93;100108.97;6244959;23;19916;-84
2022/07/15 08:20:40;;;;;;;;;;;;;;;10.49;97.25;100106.72;6245110;23;19912;-84
2022/07/15 08:23:06;;;;;;;;;;;;;;;10.46;98.06;100111.28;6244847;23;20275;-84
2022/07/15 08:25:33;;;;;;;;;;;;;;;10.54;97.48;100110.06;6218500;23;19954;-84
2022/07/15 08:27:59;;;;;;;;;;;;;;;10.41;96.59;100110.59;6244097;23;19946;-84
2022/07/15 08:30:25;;;;;;;;;;;;;;;10.51;97.95;100111.97;6218499;23;19969;-84
2022/07/15 08:32:50;;;;;;;;;;;;;;;10.39;96.96;100108.00;6244959;23;19912;-84
2022/07/15 08:35:16;;;;;;;;;;;;;;;10.52;98.49;100114.56;6244728;23;20356;-84
2022/07/15 08:37:41;;;;;;;;;;;;;;;10.41;97.78;100110.59;6244915;23;19915;-85
2022/07/15 08:40:09;;;;;;;;;;;;;;;10.65;99.63;100112.31;6244572;23;20358;-84
2022/07/15 08:42:34;;;;;;;;;;;;;;;10.46;97.56;100104.19;6253863;22;19919;-85
2022/07/15 08:45:00;;;;;;;;;;;;;;;10.60;98.96;100116.94;6275504;22;20281;-85
2022/07/15 08:47:25;;;;;;;;;;;;;;;10.40;98.61;100112.34;6275861;22;19915;-84
2022/07/15 08:49:55;;;;;;;;;;;;;;;10.28;97.97;100111.00;6275531;22;19918;-85
2022/07/15 08:52:21;;;;;;;;;;;;;;;10.53;98.29;100107.50;6275291;22;19918;-85
2022/07/15 08:54:47;;;;;;;;;;;;;;;10.23;96.49;100118.25;6275181;22;19911;-85
2022/07/15 08:57:14;;;;;;;;;;;;;;;10.51;98.46;100109.31;6274136;22;19962;-85
2022/07/15 08:59:39;;;;;;;;;;;;;;;10.44;95.95;100111.34;6275765;22;19915;-85
2022/07/15 09:02:04;;;;;;;;;;;;;;;10.43;96.94;100106.09;6275725;22;20241;-85
2022/07/15 09:04:30;;;;;;;;;;;;;;;10.38;96.22;100105.41;6275295;22;19915;-85
2022/07/15 09:06:55;;;;;;;;;;;;;;;10.32;97.41;100106.44;6248684;22;19915;-85
2022/07/15 09:09:28;;;;;;;;;;;;;;;10.36;97.05;100098.38;6248030;22;19911;-85
2022/07/15 09:11:55;;;;;;;;;;;;;;;10.21;95.90;100103.34;6273833;22;19912;-85
2022/07/15 09:14:21;;;;;;;;;;;;;;;10.45;97.21;100102.47;6275245;22;19912;-85
2022/07/15 09:16:46;;;;;;;;;;;;;;;10.19;95.62;100106.03;6275786;22;20243;-84
2022/07/15 09:19:11;;;;;;;;;;;;;;;10.47;96.97;100097.13;6275360;22;19911;-84
2022/07/15 09:21:37;;;;;;;;;;;;;;;10.27;95.04;100098.66;6275334;22;19922;-85
2022/07/15 09:24:20;;;;;;;;;;;;;;;10.38;97.14;100090.38;6275596;22;19915;-85
2022/07/15 09:27:15;;;;;;;;;;;;;;;10.41;96.83;100095.56;6274399;22;19912;-85
2022/07/15 09:36:01;;;;;;;;;;;;;;;10.24;97.36;100092.63;6277235;22;19922;-85
2022/07/15 09:37:57;;;;;;;;;;;;;;;10.23;98.02;100091.78;6277005;22;19912;-85
2022/07/15 09:40:22;;;;;;;;;;;;;;;10.40;97.88;100085.00;6277024;22;19977;-85
2022/07/15 09:43:05;;;;;;;;;;;;;;;10.34;97.04;100076.38;6275352;22;20686;-85
2022/07/15 09:45:32;;;;;;;;;;;;;;;10.48;98.66;100082.94;6277136;22;19945;-84
2022/07/15 09:48:04;;;;;;;;;;;;;;;10.31;96.33;100084.41;6277572;22;20307;-85
2022/07/15 09:50:36;;;;;;;;;;;;;;;10.43;96.51;100084.91;6277061;22;19942;-85
2022/07/15 09:53:09;;;;;;;;;;;;;;;10.31;94.83;100083.56;6276993;22;20286;-85
2022/07/15 09:55:36;;;;;;;;;;;;;;;10.17;94.43;100079.59;6277295;22;19951;-85
2022/07/15 09:58:04;;;;;;;;;;;;;;;10.39;95.82;100083.28;6275439;22;19911;-85
2022/07/15 10:00:30;;;;;;;;;;;;;;;10.21;94.57;100084.81;6277005;22;20243;-85
2022/07/15 10:02:55;;;;;;;;;;;;;;;10.52;96.41;100076.63;6249903;22;19911;-85
2022/07/15 10:05:21;;;;;;;;;;;;;;;10.20;95.57;100067.19;6276766;22;19916;-85
2022/07/15 10:07:50;;;;;;;;;;;;;;;10.47;98.00;100075.94;6276797;22;19911;-85
2022/07/15 10:10:15;;;;;;;;;;;;;;;10.31;96.94;100068.53;6249964;22;19911;-84
2022/07/15 10:13:01;;;;;;;;;;;;;;;10.23;97.38;100065.28;6275272;22;20046;-84
2022/07/15 10:15:53;;;;;;;;;;;;;;;10.48;98.03;100072.34;6276644;22;20013;-85
2022/07/15 10:18:36;;;;;;;;;;;;;;;10.33;97.32;100071.16;6235928;22;20364;-85
2022/07/15 10:21:19;;;;;;;;;;;;;;;10.61;98.52;100067.44;6249625;22;19941;-85
2022/07/15 10:23:56;;;;;;;;;;;;;;;10.45;97.65;100068.03;6276707;22;19950;-84
2022/07/15 10:26:28;;;;;;;;;;;;;;;10.33;95.22;100069.34;6274971;22;19911;-85
2022/07/15 10:28:58;;;;;;;;;;;;;;;10.36;96.25;100063.09;6276603;22;19922;-85
2022/07/15 10:31:28;;;;;;;;;;;;;;;10.10;95.04;100058.69;6249206;22;19989;-85
2022/07/15 10:34:19;;;;;;;;;;;;;;;10.40;96.82;100066.47;6276519;22;19915;-85
2022/07/15 10:36:52;;;;;;;;;;;;;;;10.17;95.25;100061.06;6268870;22;19922;-85
2022/07/15 10:39:21;;;;;;;;;;;;;;;10.16;95.89;100059.38;6276382;22;19939;-85
2022/07/15 10:41:50;;;;;;;;;;;;;;;10.35;96.52;100061.34;6274949;22;19986;-85
2022/07/15 10:44:16;;;;;;;;;;;;;;;10.11;94.75;100065.75;6276450;22;20311;-85
2022/07/15 10:46:42;;;;;;;;;;;;;;;10.35;96.19;100058.69;6249631;22;19987;-85
2022/07/15 10:49:08;;;;;;;;;;;;;;;9.92;94.71;100058.44;6246284;22;19912;-84
2022/07/15 10:51:49;;;;;;;;;;;;;;;10.36;97.53;100049.84;6272965;22;20349;-85
2022/07/15 10:54:17;;;;;;;;;;;;;;;10.33;95.65;100056.09;6274269;22;19915;-85
2022/07/15 10:56:44;;;;;;;;;;;;;;;10.24;96.21;100061.72;6274404;22;19911;-85
2022/07/15 10:59:19;;;;;;;;;;;;;;;10.22;95.61;100055.63;6269509;22;19915;-84
2022/07/15 11:01:46;;;;;;;;;;;;;;;10.14;94.97;100060.34;6276048;22;19915;-85
2022/07/15 11:04:11;;;;;;;;;;;;;;;10.42;96.34;100048.72;6275225;22;19915;-84
2022/07/15 11:06:55;;;;;;;;;;;;;;;10.23;94.83;100057.34;6273616;22;19922;-84
2022/07/15 11:09:42;;;;;;;;;;;;;;;10.46;96.26;100050.34;6274807;22;19915;-84
2022/07/15 11:12:08;;;;;;;;;;;;;;;10.26;95.00;100049.28;6304853;22;19961;-84
2022/07/15 11:14:59;;;;;;;;;;;;;;;10.32;96.58;100046.44;6306926;22;19911;-84
2022/07/15 11:17:37;;;;;;;;;;;;;;;10.34;97.88;100051.69;6272292;22;19915;-84
2022/07/15 11:20:08;;;;;;;;;;;;;;;10.20;95.52;100046.88;6306890;22;20016;-84
2022/07/15 11:22:35;;;;;;;;;;;;;;;10.48;97.34;100054.69;6279742;22;19915;-84
2022/07/15 11:25:01;;;;;;;;;;;;;;;10.46;97.13;100042.41;6279660;22;20252;-84
2022/07/15 11:27:26;;;;;;;;;;;;;;;10.34;98.77;100038.44;6305490;22;19914;-85
2022/07/15 11:29:59;;;;;;;;;;;;;;;10.44;98.41;100045.13;6280075;22;19918;-85
2022/07/15 11:32:25;;;;;;;;;;;;;;;10.26;96.77;100044.00;6280036;22;19950;-85
2022/07/15 11:34:52;;;;;;;;;;;;;;;10.47;97.78;100045.00;6279511;22;19911;-85
2022/07/15 11:37:21;;;;;;;;;;;;;;;10.35;96.87;100043.69;6306829;22;19947;-84
2022/07/15 11:39:47;;;;;;;;;;;;;;;10.52;98.48;100045.69;6279908;22;20400;-85
2022/07/15 11:45:04;;;;;;;;;;;;;;;10.47;99.01;100034.41;6275973;22;19958;-84
2022/07/15 11:47:29;;;;;;;;;;;;;;;10.42;98.34;100036.38;6275953;22;20106;-84
2022/07/15 11:50:03;;;;;;;;;;;;;;;10.39;98.24;100038.25;6274174;22;20384;-84
2022/07/15 11:52:28;;;;;;;;;;;;;;;10.51;98.74;100048.38;6274176;22;19926;-84
2022/07/15 11:54:54;;;;;;;;;;;;;;;10.47;97.73;100045.00;6275693;22;19911;-84
2022/07/15 11:57:20;;;;;;;;;;;;;;;10.67;98.87;100028.34;6274281;22;20377;-84
2022/07/15 11:59:53;;;;;;;;;;;;;;;10.56;98.22;100032.31;6274742;22;19918;-84
2022/07/15 12:02:18;;;;;;;;;;;;;;;10.61;99.94;100033.00;6275894;22;19922;-84
2022/07/15 12:04:44;;;;;;;;;;;;;;;10.47;99.55;100028.25;6275527;22;19911;-84
2022/07/15 12:07:09;;;;;;;;;;;;;;;10.71;100.00;100016.69;6275832;22;19919;-85
2022/07/15 12:09:38;;;;;;;;;;;;;;;10.66;99.36;100025.75;6274517;22;19934;-84
2022/07/15 12:12:03;;;;;;;;;;;;;;;10.71;100.00;100034.38;6274199;22;19918;-84
2022/07/15 12:14:29;;;;;;;;;;;;;;;10.54;98.29;100027.06;6275604;22;19919;-84
2022/07/15 12:16:54;;;;;;;;;;;;;;;10.69;99.68;100020.28;6274411;22;19965;-84
2022/07/15 12:19:27;;;;;;;;;;;;;;;10.58;98.63;100023.41;6275555;22;19922;-84
2022/07/15 12:21:54;;;;;;;;;;;;;;;10.53;97.58;100020.91;6275623;22;20425;-84
2022/07/15 12:24:26;;;;;;;;;;;;;;;10.66;97.62;100007.19;6274460;22;19957;-84
2022/07/15 12:26:52;;;;;;;;;;;;;;;10.53;96.61;100022.72;6274096;22;19915;-84
2022/07/15 12:29:19;;;;;;;;;;;;;;;10.58;98.96;100007.50;6275623;22;19965;-84
2022/07/15 12:31:51;;;;;;;;;;;;;;;10.47;97.40;100009.69;6273821;22;19915;-84
2022/07/15 12:34:16;;;;;;;;;;;;;;;10.72;98.59;100012.22;6275506;22;20053;-84
2022/07/15 12:36:41;;;;;;;;;;;;;;;10.67;97.51;100001.84;6275638;22;20331;-83
2022/07/15 12:39:11;;;;;;;;;;;;;;;10.68;98.84;100008.84;6275572;22;19918;-83
2022/07/15 12:41:38;;;;;;;;;;;;;;;10.58;97.76;100012.78;6273737;22;19911;-84
2022/07/15 12:44:03;;;;;;;;;;;;;;;10.59;97.47;100014.50;6305090;22;19919;-84
2022/07/15 12:46:48;;;;;;;;;;;;;;;10.52;97.36;100013.03;6306757;22;19914;-84
2022/07/15 12:49:33;;;;;;;;;;;;;;;10.45;97.72;100023.00;6278951;22;19911;-84
2022/07/15 12:52:10;;;;;;;;;;;;;;;10.68;98.41;100011.50;6278786;22;19914;-84
2022/07/15 12:54:36;;;;;;;;;;;;;;;10.43;96.83;100002.78;6306088;22;19915;-84
2022/07/15 12:57:01;;;;;;;;;;;;;;;10.67;98.87;100003.59;6304841;22;19915;-84
2022/07/15 12:59:27;;;;;;;;;;;;;;;10.54;98.15;100005.88;6306312;22;20385;-85
2022/07/15 13:02:02;;;;;;;;;;;;;;;10.64;98.01;100009.91;6280552;22;19989;-84
2022/07/15 13:04:28;;;;;;;;;;;;;;;10.57;97.62;100008.41;6308384;22;19911;-84
2022/07/15 13:06:53;;;;;;;;;;;;;;;10.51;96.94;100001.56;6308621;22;19915;-84
2022/07/15 13:09:19;;;;;;;;;;;;;;;10.62;97.30;100014.38;6308305;22;19915;-84
2022/07/15 13:11:44;;;;;;;;;;;;;;;10.47;96.78;99999.97;6306687;22;20296;-84
2022/07/15 13:14:09;;;;;;;;;;;;;;;10.69;98.89;99994.69;6255730;22;19911;-84
2022/07/15 13:16:35;;;;;;;;;;;;;;;10.40;98.20;99995.81;6308196;22;19938;-84
2022/07/15 13:19:00;;;;;;;;;;;;;;;10.69;99.29;99994.69;6308812;22;19911;-84
2022/07/15 13:21:25;;;;;;;;;;;;;;;10.59;96.42;99988.00;6308575;22;20379;-84
2022/07/15 13:23:50;;;;;;;;;;;;;;;10.71;97.59;99992.81;6308124;22;19998;-85
2022/07/15 13:26:16;;;;;;;;;;;;;;;10.62;95.97;99987.88;6279167;22;20345;-84
2022/07/15 13:28:41;;;;;;;;;;;;;;;10.57;96.29;99984.56;6306787;22;19911;-84
2022/07/15 13:31:07;;;;;;;;;;;;;;;10.66;95.69;99988.66;6308143;22;20516;-84
2022/07/15 13:33:32;;;;;;;;;;;;;;;10.48;95.52;99991.09;6307977;22;20044;-84
2022/07/15 13:35:57;;;;;;;;;;;;;;;10.71;96.56;99995.47;6308050;22;19915;-84
2022/07/15 13:38:23;;;;;;;;;;;;;;;10.53;96.58;99982.97;6280866;22;19911;-85
2022/07/15 13:40:48;;;;;;;;;;;;;;;10.63;98.90;99983.47;6306656;22;19919;-84
2022/07/15 13:43:13;;;;;;;;;;;;;;;10.57;98.29;99979.25;6307593;22;19915;-84
2022/07/15 13:45:39;;;;;;;;;;;;;;;10.70;99.66;99976.97;6307986;22;19915;-84
2022/07/15 13:48:04;;;;;;;;;;;;;;;10.47;98.42;99976.13;6308193;22;19911;-84
2022/07/15 13:53:13;;;;;;;;;;;;;;;10.64;99.42;99978.09;6307962;22;19956;-84
2022/07/15 13:55:42;;;;;;;;;;;;;;;10.69;100.00;99968.19;6307818;22;20001;-84
2022/07/15 13:58:07;;;;;;;;;;;;;;;10.60;99.46;99978.28;6306628;22;19949;-84
2022/07/15 14:00:35;;;;;;;;;;;;;;;10.45;99.69;99972.66;6307992;22;20235;-84
2022/07/15 14:03:00;;;;;;;;;;;;;;;10.62;99.79;99977.28;6307763;22;20005;-84
2022/07/15 14:05:26;;;;;;;;;;;;;;;10.61;98.59;99970.28;6307814;22;19977;-84
2022/07/15 14:07:51;;;;;;;;;;;;;;;10.83;99.07;99974.69;6280291;22;19997;-83
2022/07/15 14:10:16;;;;;;;;;;;;;;;10.56;98.55;99974.03;6280929;22;19965;-84
2022/07/15 14:12:42;;;;;;;;;;;;;;;10.90;99.87;99968.22;6305661;22;20306;-84
2022/07/15 14:15:08;;;;;;;;;;;;;;;10.90;98.99;99966.44;6308060;22;19919;-83
2022/07/15 14:17:34;;;;;;;;;;;;;;;10.76;99.87;99968.78;6308077;22;20234;-84
2022/07/15 14:20:00;;;;;;;;;;;;;;;10.82;98.45;99968.53;6307687;22;19915;-88
2022/07/15 14:22:26;;;;;;;;;;;;;;;10.72;99.52;99968.06;6307748;22;19938;-84
2022/07/15 14:24:52;;;;;;;;;;;;;;;10.59;97.93;99961.50;6280174;22;20327;-84
2022/07/15 14:27:17;;;;;;;;;;;;;;;10.85;99.65;99951.63;6279003;22;19940;-84
2022/07/15 14:29:42;;;;;;;;;;;;;;;10.62;98.52;99961.38;6307544;22;19911;-84
2022/07/15 14:32:10;;;;;;;;;;;;;;;10.81;100.00;99968.59;6307666;22;19919;-84
2022/07/15 14:34:36;;;;;;;;;;;;;;;10.77;98.93;99956.38;6279965;22;19910;-84
2022/07/15 14:37:01;;;;;;;;;;;;;;;10.85;100.00;99955.16;6307332;22;20234;-84
2022/07/15 14:39:26;;;;;;;;;;;;;;;10.80;100.00;99958.91;6307572;22;19907;-84
2022/07/15 14:41:51;;;;;;;;;;;;;;;10.83;100.00;99954.38;6305525;22;19910;-84
2022/07/15 14:44:17;;;;;;;;;;;;;;;10.74;99.76;99944.13;6307560;22;19914;-84
2022/07/15 14:46:44;;;;;;;;;;;;;;;10.66;100.00;99955.06;6307393;22;20033;-84
2022/07/15 14:49:10;;;;;;;;;;;;;;;10.77;100.00;99948.44;6307779;22;20376;-84
2022/07/15 14:51:35;;;;;;;;;;;;;;;10.65;100.00;99949.81;6307962;22;19919;-84
2022/07/15 14:54:00;;;;;;;;;;;;;;;10.86;100.00;99948.91;6307299;22;19926;-84
2022/07/15 14:56:25;;;;;;;;;;;;;;;10.74;100.00;99952.09;6278656;22;19988;-84
2022/07/15 14:58:51;;;;;;;;;;;;;;;10.83;100.00;99945.53;6280241;22;19937;-84
2022/07/15 15:01:17;;;;;;;;;;;;;;;10.63;100.00;99941.94;6280219;22;19918;-84
2022/07/15 15:03:42;;;;;;;;;;;;;;;10.73;100.00;99951.22;6307165;22;20339;-84
2022/07/15 15:06:07;;;;;;;;;;;;;;;10.59;98.63;99952.72;6307047;22;19918;-84
2022/07/15 15:08:33;;;;;;;;;;;;;;;10.83;99.65;99945.53;6307688;22;19983;-84
2022/07/15 15:10:58;;;;;;;;;;;;;;;10.57;98.62;99936.88;6305581;22;19926;-84
2022/07/15 15:13:26;;;;;;;;;;;;;;;10.81;100.00;99937.66;6280172;22;20385;-84
2022/07/15 15:15:51;;;;;;;;;;;;;;;10.73;98.50;99939.75;6280037;22;19911;-83
2022/07/15 15:18:16;;;;;;;;;;;;;;;10.77;99.21;99938.72;6307176;22;20344;-84
2022/07/15 15:20:42;;;;;;;;;;;;;;;10.73;98.21;99935.31;6307385;22;19961;-84
2022/07/15 15:23:10;;;;;;;;;;;;;;;10.53;97.96;99941.44;6279640;22;19918;-86
2022/07/15 15:28:19;;;;;;;;;;;;;;;10.56;97.69;99934.28;6307310;22;20337;-84
2022/07/15 15:30:46;;;;;;;;;;;;;;;10.80;98.90;99933.28;6306932;22;19911;-84
2022/07/15 15:33:11;;;;;;;;;;;;;;;10.70;97.34;99931.94;6279599;22;19911;-85
2022/07/15 15:35:36;;;;;;;;;;;;;;;10.82;99.04;99935.88;6306985;22;19915;-85
2022/07/15 15:38:01;;;;;;;;;;;;;;;10.72;98.21;99930.94;6279950;22;19914;-84
2022/07/15 15:40:27;;;;;;;;;;;;;;;10.73;98.21;99935.31;6307195;22;19918;-83
2022/07/15 15:42:52;;;;;;;;;;;;;;;10.67;98.03;99932.06;6305205;22;20365;-84
2022/07/15 15:45:18;;;;;;;;;;;;;;;10.48;97.91;99931.94;6306904;22;19921;-84
2022/07/15 15:47:43;;;;;;;;;;;;;;;10.73;99.27;99930.00;6306807;22;19911;-84
2022/07/15 15:50:08;;;;;;;;;;;;;;;10.60;98.80;99928.78;6306778;22;20300;-83
2022/07/15 15:52:34;;;;;;;;;;;;;;;10.76;99.14;99933.47;6306908;22;19918;-84
2022/07/15 15:54:59;;;;;;;;;;;;;;;10.63;97.40;99926.03;6307024;22;19915;-83
2022/07/15 15:57:24;;;;;;;;;;;;;;;10.85;98.65;99931.31;6305288;22;20009;-83
2022/07/15 15:59:49;;;;;;;;;;;;;;;10.53;97.83;99940.59;6306685;22;20269;-84
2022/07/15 16:05:17;;;;;;;;;;;;;;;10.71;98.66;99934.53;6306706;22;20342;-84
2022/07/15 16:07:43;;;;;;;;;;;;;;;10.70;98.42;99923.97;6306974;22;19911;-84
2022/07/15 16:10:08;;;;;;;;;;;;;;;10.83;99.34;99921.69;6307024;22;20474;-83
2022/07/15 16:12:34;;;;;;;;;;;;;;;10.57;98.42;99928.91;6305328;22;19956;-85
2022/07/15 16:14:59;;;;;;;;;;;;;;;10.83;99.81;99926.97;6279001;22;19918;-84
2022/07/15 16:17:25;;;;;;;;;;;;;;;10.51;98.50;99937.09;6306704;22;19910;-84
2022/07/15 16:19:51;;;;;;;;;;;;;;;10.75;99.55;99929.09;6306380;22;19915;-83
2022/07/15 16:25:01;;;;;;;;;;;;;;;10.75;98.40;99926.44;6306464;22;20321;-84
2022/07/15 16:27:26;;;;;;;;;;;;;;;10.76;97.76;99929.03;6304868;22;19910;-83
2022/07/15 16:29:51;;;;;;;;;;;;;;;10.79;98.38;99928.06;6306691;22;20314;-84
2022/07/15 16:32:17;;;;;;;;;;;;;;;10.61;98.16;99925.22;6306978;22;20413;-84
2022/07/15 16:34:42;;;;;;;;;;;;;;;10.52;96.60;99922.94;6278486;22;19942;-83
2022/07/15 16:37:07;;;;;;;;;;;;;;;10.66;96.85;99919.75;6279172;22;19972;-83
2022/07/15 16:39:32;;;;;;;;;;;;;;;10.43;95.14;99918.03;6306280;22;19915;-83
2022/07/15 16:41:58;;;;;;;;;;;;;;;10.66;97.10;99915.31;6304403;22;19914;-83
2022/07/15 16:44:23;;;;;;;;;;;;;;;10.68;95.80;99918.75;6279013;22;20330;-83
2022/07/15 16:46:48;;;;;;;;;;;;;;;10.70;97.98;99922.19;6306917;22;19919;-83
2022/07/15 16:49:13;;;;;;;;;;;;;;;10.47;96.78;99920.47;6306761;22;19915;-83
2022/07/15 16:51:39;;;;;;;;;;;;;;;10.64;98.02;99918.94;6279226;22;19918;-83
2022/07/15 16:54:04;;;;;;;;;;;;;;;10.49;96.48;99912.47;6306289;22;19911;-83
2022/07/15 16:56:29;;;;;;;;;;;;;;;10.51;95.53;99918.56;6302227;22;20002;-84
2022/07/15 16:58:55;;;;;;;;;;;;;;;10.52;95.93;99912.34;6278892;22;19911;-84
2022/07/15 17:01:20;;;;;;;;;;;;;;;10.47;94.49;99919.63;6278628;22;20274;-84
2022/07/15 17:03:45;;;;;;;;;;;;;;;10.67;95.70;99913.50;6306365;22;19940;-84
2022/07/15 17:06:11;;;;;;;;;;;;;;;10.38;93.81;99914.69;6279272;22;19922;-84
2022/07/15 17:08:36;;;;;;;;;;;;;;;10.53;96.52;99920.25;6306787;22;19911;-84
2022/07/15 17:11:02;;;;;;;;;;;;;;;10.48;94.74;99916.03;6277315;22;19915;-83
2022/07/15 17:13:27;;;;;;;;;;;;;;;10.51;96.39;99915.91;6306180;22;19943;-83
2022/07/15 17:15:52;;;;;;;;;;;;;;;10.44;95.31;99917.09;6306220;22;19996;-83
2022/07/15 17:18:17;;;;;;;;;;;;;;;10.50;96.87;99915.06;6306280;22;19956;-84
2022/07/15 17:20:42;;;;;;;;;;;;;;;10.33;97.04;99912.22;6306243;22;19911;-83
2022/07/15 17:23:08;;;;;;;;;;;;;;;10.52;96.51;99912.34;6306215;22;19915;-84
2022/07/15 17:25:33;;;;;;;;;;;;;;;10.57;96.32;99912.16;6306187;22;20380;-84
2022/07/15 17:27:58;;;;;;;;;;;;;;;10.21;95.15;99913.56;6304051;22;19919;-84
2022/07/15 17:30:24;;;;;;;;;;;;;;;10.57;96.67;99915.66;6304527;22;19945;-83
2022/07/15 17:32:50;;;;;;;;;;;;;;;10.28;94.36;99919.47;6305838;22;19911;-85
2022/07/15 17:35:15;;;;;;;;;;;;;;;10.64;95.98;99917.16;6306163;22;19915;-83
2022/07/15 17:37:40;;;;;;;;;;;;;;;10.44;94.20;99923.25;6306139;22;19956;-83
2022/07/15 17:40:06;;;;;;;;;;;;;;;10.32;95.40;99924.63;6305556;22;19993;-84
2022/07/15 17:42:31;;;;;;;;;;;;;;;10.36;95.10;99923.56;6304808;22;19915;-84
2022/07/15 17:44:57;;;;;;;;;;;;;;;10.23;95.08;99924.06;6305674;22;19911;-84
2022/07/15 17:47:22;;;;;;;;;;;;;;;10.48;95.36;99932.81;6305944;22;19911;-84
2022/07/15 17:49:48;;;;;;;;;;;;;;;10.40;93.42;99928.72;6308034;22;19989;-84
2022/07/15 17:52:13;;;;;;;;;;;;;;;10.49;95.88;99933.66;6280098;22;20297;-84
2022/07/15 17:54:38;;;;;;;;;;;;;;;10.27;93.83;99928.31;6307441;22;20375;-83
2022/07/15 17:57:04;;;;;;;;;;;;;;;10.51;95.04;99940.66;6306785;22;19922;-84
2022/07/15 17:59:32;;;;;;;;;;;;;;;10.34;93.45;99935.16;6306807;22;19915;-84
2022/07/15 18:01:57;;;;;;;;;;;;;;;10.30;94.20;99934.34;6306981;22;20293;-84
2022/07/15 18:04:26;;;;;;;;;;;;;;;10.36;94.40;99936.81;6306463;22;19915;-86
2022/07/15 18:06:51;;;;;;;;;;;;;;;10.16;94.56;99937.56;6279788;22;19963;-84
2022/07/15 18:09:17;;;;;;;;;;;;;;;10.47;96.27;99936.38;6307313;22;20334;-84
2022/07/15 18:11:42;;;;;;;;;;;;;;;10.27;94.92;99929.19;6305370;22;19917;-83
2022/07/15 18:14:07;;;;;;;;;;;;;;;10.44;96.15;99935.66;6305970;22;19990;-84
2022/07/15 18:16:33;;;;;;;;;;;;;;;10.23;94.33;99932.88;6306733;22;20242;-83
2022/07/15 18:18:58;;;;;;;;;;;;;;;10.44;95.87;99935.66;6307345;22;19973;-83
2022/07/15 18:21:24;;;;;;;;;;;;;;;10.45;94.79;99937.34;6307033;22;19915;-86
2022/07/15 18:23:49;;;;;;;;;;;;;;;10.28;95.87;99936.22;6279997;22;20335;-86
2022/07/15 18:26:14;;;;;;;;;;;;;;;10.41;95.79;99943.72;6306189;22;19922;-87
2022/07/15 18:28:39;;;;;;;;;;;;;;;10.23;94.60;99943.47;6308024;22;19911;-84
2022/07/15 18:31:05;;;;;;;;;;;;;;;10.53;96.46;99936.13;6306684;22;19922;-84
2022/07/15 18:33:30;;;;;;;;;;;;;;;10.40;95.44;99940.19;6279051;22;19915;-84
2022/07/15 18:35:55;;;;;;;;;;;;;;;10.70;97.01;99932.78;6279251;22;19967;-84
2022/07/15 18:38:27;;;;;;;;;;;;;;;10.47;96.09;99935.53;6278839;22;19911;-84
2022/07/15 18:40:53;;;;;;;;;;;;;;;10.76;97.73;99936.13;6305753;22;20005;-84
2022/07/15 18:43:18;;;;;;;;;;;;;;;10.65;95.63;99934.75;6306252;22;19919;-84
2022/07/15 18:45:44;;;;;;;;;;;;;;;10.59;96.69;99935.00;6280281;22;20349;-84
2022/07/15 18:48:21;;;;;;;;;;;;;;;10.50;96.92;99938.06;6279322;22;19915;-84
2022/07/15 18:50:47;;;;;;;;;;;;;;;10.46;96.46;99933.78;6280160;22;19946;-84
2022/07/15 18:53:12;;;;;;;;;;;;;;;10.73;96.48;99935.31;6279668;22;20206;-84
2022/07/15 18:58:48;;;;;;;;;;;;;;;10.64;97.41;99933.06;6270925;22;19937;-84
2022/07/15 19:01:14;;;;;;;;;;;;;;;10.51;96.42;99937.09;6279334;22;19934;-84
2022/07/15 19:03:39;;;;;;;;;;;;;;;10.71;97.67;99931.00;6306815;22;20250;-84
2022/07/15 19:06:05;;;;;;;;;;;;;;;10.54;97.09;99931.69;6279532;22;20395;-84
2022/07/15 19:08:30;;;;;;;;;;;;;;;10.64;97.34;99940.13;6279056;22;19914;-84
2022/07/15 19:10:55;;;;;;;;;;;;;;;10.68;97.06;99929.34;6279756;22;19945;-83
2022/07/15 19:13:21;;;;;;;;;;;;;;;10.63;96.51;99941.94;6278983;22;19918;-84
2022/07/15 19:15:48;;;;;;;;;;;;;;;10.78;96.71;99942.22;6306690;22;19917;-83
2022/07/15 19:18:13;;;;;;;;;;;;;;;10.62;96.11;99948.13;6279054;22;19915;-84
2022/07/15 19:20:38;;;;;;;;;;;;;;;10.75;97.69;99952.94;6279811;22;19921;-84
2022/07/15 19:23:03;;;;;;;;;;;;;;;10.59;96.58;99950.91;6307410;22;19915;-84
2022/07/15 19:25:29;;;;;;;;;;;;;;;10.72;98.57;99956.56;6306975;22;19926;-83
2022/07/15 19:27:54;;;;;;;;;;;;;;;10.65;97.11;99957.75;6277723;22;19911;-83
2022/07/15 19:30:19;;;;;;;;;;;;;;;10.75;98.54;99960.91;6278467;22;19915;-83
2022/07/15 19:32:45;;;;;;;;;;;;;;;10.64;96.86;99966.63;6306707;22;19990;-83
2022/07/15 19:35:11;;;;;;;;;;;;;;;10.80;97.84;99969.50;6279005;22;19911;-84
2022/07/15 19:37:39;;;;;;;;;;;;;;;10.69;96.62;99970.81;6279928;22;19965;-84
2022/07/15 19:40:05;;;;;;;;;;;;;;;10.71;96.64;99968.97;6306336;22;19911;-83
2022/07/15 19:42:31;;;;;;;;;;;;;;;10.58;96.94;99967.75;6304840;22;19915;-83
2022/07/15 19:44:56;;;;;;;;;;;;;;;10.32;96.29;99969.66;6306632;22;19936;-84
2022/07/15 19:47:23;;;;;;;;;;;;;;;10.68;97.65;99977.03;6306056;22;19914;-84
2022/07/15 19:49:48;;;;;;;;;;;;;;;10.47;96.22;99976.13;6305627;22;19915;-84
2022/07/15 19:52:13;;;;;;;;;;;;;;;10.77;97.39;99978.47;6279306;22;19917;-84